Wardsboro, VT (05355)

9:08 AM EDT on May 30, 2015 (GMT -0400)
2 Miles up a dirt road | | Change Station
CLOSE
Current Station
Personal Weather Station
Location: East Dover, VT
Elevation: 1699 ft
Nearby Weather Stations

Elev 1699 ft 42.98 °N, 72.78 °W | Updated 54 seconds ago

Clear
Clear
70.0 °F
Feels Like 70.0 °F
N
0.0
Wind Variable Wind from WNW
Gusts 0.0 mph

Today
High -- | Low -- °F
--% Chance of Precip.
Yesterday
High -- | Low -- °F
Precip. -- in
5:15 AM 8:22 PM
Waxing Gibbous, 90% visible
Pressure 30.13 in
Visibility 10.0 miles
Clouds Clear
Dew Point 62 °F
Humidity 75%
Rainfall 0.00 in
Snow Depth Not available.
UV 5 out of 12
Pollen 8.00 out of 12
Air Quality Not available.
Flu Activity Sporadic
METAR KDDH 301254Z AUTO 23009KT 10SM CLR 24/17 A3014 RMK AO2 SLP202 T02390167

More Conditions Fewer Conditions

Pressure 30.13 in
Visibility 10.0 miles
Clouds Clear
Dew Point 62 °F
Humidity 75%
Rainfall 0.00 in
Snow Depth Not available.
UV 5 out of 12
Pollen 8.00 out of 12
Air Quality Not available.
Flu Activity Sporadic
METAR KDDH 301254Z AUTO 23009KT 10SM CLR 24/17 A3014 RMK AO2 SLP202 T02390167

More Conditions Fewer Conditions

10-Day Weather Forecast

Almanac

Astronomy

May. 30, 2015 Rise Set
Actual Time
Civil Twilight
Nautical Twilight
Astronomical Twilight
Moon
Length of Visible Light
Length of Day
Tomorrow will be .
, % of the Moon is Illuminated

Today's Extremes

State Highs State Lows

Community

WunderPhotos

Upload Photos

1,825,504 photos uploaded!

WunderBlogs® & News

Nearby

Air Quality

  Air Quality AQ Index Pollutant
Not available.

Snow Depth

Station Depth Elevation

Earthquake Activity

City Distance Mag. Time & Date
Minimum magnitude displayed is 2.5.

Coastal Water Temperatures

Place Temperature

Stations

Nearby Weather Stations

Station Location Temp. Windchill Dew Point Humidity Wind Precip. Elev Updated Type